createdAt,value
2022-11-25T00:01:09.789Z,35.63
2022-11-25T00:03:36.701Z,35.55
2022-11-25T00:06:10.231Z,30.67
2022-11-25T00:08:37.428Z,34.78
2022-11-25T00:11:05.149Z,38.78
2022-11-25T00:13:32.307Z,33.50
2022-11-25T00:16:11.663Z,35.95
2022-11-25T00:18:38.802Z,32.60
2022-11-25T00:21:08.266Z,37.30
2022-11-25T00:23:35.879Z,32.95
2022-11-25T00:26:16.535Z,35.20
2022-11-25T00:28:45.953Z,40.03
2022-11-25T00:31:27.222Z,38.08
2022-11-25T00:33:54.001Z,34.85
2022-11-25T00:36:21.613Z,37.33
2022-11-25T00:38:52.521Z,36.00
2022-11-25T00:41:37.299Z,37.03
2022-11-25T00:44:22.664Z,36.28
2022-11-25T00:46:49.175Z,37.25
2022-11-25T00:49:15.682Z,30.98
2022-11-25T00:51:42.105Z,33.25
2022-11-25T00:54:08.523Z,36.88
2022-11-25T00:56:35.000Z,40.15
2022-11-25T00:59:01.464Z,35.60
2022-11-25T01:01:27.991Z,33.65
2022-11-25T01:03:54.525Z,34.88
2022-11-25T01:06:22.051Z,35.13
2022-11-25T01:08:48.906Z,37.75
2022-11-25T01:11:18.381Z,44.75
2022-11-25T01:13:45.160Z,38.22
2022-11-25T01:16:17.194Z,36.13
2022-11-25T01:18:44.049Z,36.00
2022-11-25T01:21:13.210Z,42.00
2022-11-25T01:23:40.701Z,35.47
2022-11-25T01:26:11.304Z,39.15
2022-11-25T01:28:37.739Z,39.67
2022-11-25T01:31:12.904Z,33.22
2022-11-25T01:33:43.496Z,35.72
2022-11-25T01:36:19.378Z,32.33
2022-11-25T01:38:49.681Z,35.88
2022-11-25T01:41:16.176Z,33.28
2022-11-25T01:43:42.656Z,32.90
2022-11-25T01:46:10.696Z,33.10
2022-11-25T01:48:49.321Z,34.80
2022-11-25T01:51:43.926Z,34.38
2022-11-25T01:54:14.031Z,36.65
2022-11-25T01:56:47.008Z,32.80
2022-11-25T01:59:13.989Z,36.65
2022-11-25T02:01:40.510Z,36.30
2022-11-25T02:04:10.977Z,37.35
2022-11-25T02:07:00.831Z,34.38
2022-11-25T02:09:27.733Z,34.90
2022-11-25T02:11:54.602Z,36.03
2022-11-25T02:14:23.085Z,31.58
2022-11-25T02:16:49.659Z,32.08
2022-11-25T02:19:43.073Z,32.47
2022-11-25T02:22:15.481Z,37.70
2022-11-25T02:24:46.139Z,32.03
2022-11-25T02:27:12.995Z,34.90
2022-11-25T02:29:40.201Z,32.25
2022-11-25T02:32:06.784Z,32.17
2022-11-25T02:34:33.402Z,34.55
2022-11-25T02:37:00.660Z,34.15
2022-11-25T02:39:28.078Z,38.25
2022-11-25T02:41:58.619Z,33.60
2022-11-25T02:44:25.039Z,32.80
2022-11-25T02:46:51.469Z,33.20
2022-11-25T02:49:17.931Z,31.52
2022-11-25T02:51:45.317Z,35.33
2022-11-25T02:54:13.546Z,31.35
2022-11-25T02:56:40.542Z,33.33
2022-11-25T02:59:07.853Z,35.30
2022-11-25T03:01:35.361Z,34.03
2022-11-25T03:04:02.286Z,36.55
2022-11-25T03:06:29.768Z,34.80
2022-11-25T03:08:57.005Z,35.90
2022-11-25T03:11:46.724Z,29.48
2022-11-25T03:14:13.353Z,31.15
2022-11-25T03:16:39.893Z,30.10
2022-11-25T03:19:06.731Z,33.60
2022-11-25T03:21:33.179Z,33.15
2022-11-25T03:24:00.079Z,36.05
2022-11-25T03:26:26.703Z,32.38
2022-11-25T03:28:53.230Z,37.38
2022-11-25T03:31:19.787Z,33.53
2022-11-25T03:33:46.331Z,30.58
2022-11-25T03:36:12.765Z,33.60
2022-11-25T03:38:39.178Z,38.33
2022-11-25T03:41:06.800Z,30.73
2022-11-25T03:43:33.246Z,36.70
2022-11-25T03:45:59.701Z,36.42
2022-11-25T03:48:26.174Z,36.53
2022-11-25T03:50:52.644Z,39.72
2022-11-25T03:53:19.147Z,36.85
2022-11-25T03:55:47.979Z,30.02
2022-11-25T03:58:14.435Z,34.05
2022-11-25T04:00:40.880Z,29.50
2022-11-25T04:03:07.318Z,37.50
2022-11-25T04:05:33.763Z,29.73
2022-11-25T04:08:00.238Z,37.25
2022-11-25T04:10:26.784Z,33.08
2022-11-25T04:12:54.098Z,34.92
2022-11-25T04:15:20.561Z,36.58
2022-11-25T04:17:47.113Z,36.22
2022-11-25T04:20:14.860Z,36.42
2022-11-25T04:22:41.657Z,36.92
2022-11-25T04:25:09.265Z,34.00
2022-11-25T04:27:35.742Z,41.90
2022-11-25T04:30:02.171Z,36.90
2022-11-25T04:32:28.675Z,35.05
2022-11-25T04:34:55.173Z,34.38
2022-11-25T04:37:21.766Z,38.92
2022-11-25T04:39:48.429Z,33.33
2022-11-25T04:42:32.667Z,40.58
2022-11-25T04:45:21.420Z,40.67
2022-11-25T04:47:46.537Z,38.20
2022-11-25T04:50:16.260Z,40.13
2022-11-25T04:52:42.657Z,35.35
2022-11-25T04:55:09.688Z,41.15
2022-11-25T04:57:36.337Z,40.33
2022-11-25T05:00:04.012Z,41.47
2022-11-25T05:02:30.536Z,38.85
2022-11-25T05:04:57.600Z,37.72
2022-11-25T05:07:26.010Z,38.78
2022-11-25T05:09:52.549Z,39.90
2022-11-25T05:12:23.058Z,42.50
2022-11-25T05:14:49.944Z,39.60
2022-11-25T05:17:19.672Z,41.95
2022-11-25T05:19:46.141Z,42.03
2022-11-25T05:22:24.653Z,47.65
2022-11-25T05:24:51.589Z,40.35
2022-11-25T05:27:18.400Z,49.92
2022-11-25T05:29:44.996Z,56.55
2022-11-25T05:32:12.167Z,43.72
2022-11-25T05:34:39.042Z,48.67
2022-11-25T05:37:06.347Z,45.83
2022-11-25T05:39:32.947Z,39.22
2022-11-25T05:41:59.489Z,39.45
2022-11-25T05:44:26.287Z,39.42
2022-11-25T05:46:53.139Z,42.70
2022-11-25T05:49:19.940Z,36.25
2022-11-25T05:51:46.719Z,34.97
2022-11-25T05:54:13.792Z,33.55
2022-11-25T05:56:40.736Z,36.22
2022-11-25T05:59:07.434Z,39.75
2022-11-25T06:01:34.238Z,39.38
2022-11-25T06:04:01.332Z,42.53
2022-11-25T06:06:28.075Z,41.53
2022-11-25T06:08:54.570Z,43.67
2022-11-25T06:11:21.213Z,37.15
2022-11-25T06:13:47.656Z,46.10
2022-11-25T06:16:20.168Z,44.08
2022-11-25T06:18:46.732Z,42.92
2022-11-25T06:21:13.628Z,40.83
2022-11-25T06:23:40.672Z,42.30
2022-11-25T06:26:15.718Z,46.13
2022-11-25T06:28:42.444Z,43.08
2022-11-25T06:31:15.848Z,42.63
2022-11-25T06:33:42.406Z,42.55
2022-11-25T06:36:16.890Z,54.80
2022-11-25T06:38:52.335Z,54.88
2022-11-25T06:41:19.882Z,49.92
2022-11-25T06:43:46.404Z,47.40
2022-11-25T06:46:19.680Z,47.97
2022-11-25T06:48:49.575Z,47.95
2022-11-25T06:51:16.832Z,54.05
2022-11-25T06:53:44.047Z,50.85
2022-11-25T06:56:16.244Z,48.58
2022-11-25T06:58:43.706Z,42.67
2022-11-25T07:01:22.955Z,45.08
2022-11-25T07:03:52.173Z,45.53
2022-11-25T07:06:20.374Z,50.78
2022-11-25T07:08:47.874Z,46.38
2022-11-25T07:11:20.619Z,52.95
2022-11-25T07:13:48.070Z,49.40
2022-11-25T07:16:15.240Z,47.33
2022-11-25T07:18:42.669Z,40.63
2022-11-25T07:21:14.899Z,41.63
2022-11-25T07:23:42.993Z,46.97
2022-11-25T07:26:12.323Z,49.60
2022-11-25T07:28:39.566Z,45.55
2022-11-25T07:31:31.146Z,47.22
2022-11-25T07:34:04.480Z,54.38
2022-11-25T07:36:33.133Z,47.97
2022-11-25T07:39:02.701Z,60.88
2022-11-25T07:41:29.349Z,52.63
2022-11-25T07:43:58.417Z,61.42
2022-11-25T07:46:34.040Z,60.55
2022-11-25T07:49:03.327Z,58.08
2022-11-25T07:51:38.209Z,53.05
2022-11-25T07:54:07.663Z,52.13
2022-11-25T07:56:36.497Z,55.72
2022-11-25T07:59:03.092Z,58.17
2022-11-25T08:01:29.927Z,56.75
2022-11-25T08:03:56.822Z,59.80
2022-11-25T08:06:26.600Z,52.55
2022-11-25T08:08:55.446Z,57.17
2022-11-25T08:11:28.013Z,60.42
2022-11-25T08:13:55.271Z,58.00
2022-11-25T08:16:24.073Z,61.40
2022-11-25T08:18:50.800Z,60.03
2022-11-25T08:21:18.292Z,64.30
2022-11-25T08:23:47.486Z,61.13
2022-11-25T08:26:17.201Z,68.80
2022-11-25T08:28:43.946Z,59.53
2022-11-25T08:31:14.773Z,60.92
2022-11-25T08:33:41.879Z,60.45
2022-11-25T08:36:08.822Z,63.90
2022-11-25T08:38:35.969Z,60.83
2022-11-25T08:41:02.894Z,62.35
2022-11-25T08:43:29.805Z,67.32
2022-11-25T08:45:57.094Z,59.60
2022-11-25T08:48:24.139Z,63.28
2022-11-25T08:50:53.796Z,62.72
2022-11-25T08:53:21.865Z,68.07
2022-11-25T08:55:49.454Z,72.47
2022-11-25T08:58:15.982Z,65.00
2022-11-25T09:00:43.965Z,72.15
2022-11-25T09:03:10.979Z,63.58
2022-11-25T09:05:42.815Z,63.15
2022-11-25T09:08:10.732Z,71.32
2022-11-25T09:10:39.147Z,65.53
2022-11-25T09:13:06.065Z,69.72
2022-11-25T09:15:32.970Z,64.90
2022-11-25T09:18:01.706Z,66.35
2022-11-25T09:20:28.540Z,62.47
2022-11-25T09:22:55.488Z,53.72
2022-11-25T09:25:22.888Z,55.70
2022-11-25T09:27:49.370Z,60.78
2022-11-25T09:30:16.306Z,53.00
2022-11-25T09:32:43.357Z,59.22
2022-11-25T09:35:10.606Z,52.13
2022-11-25T09:37:37.202Z,49.17
2022-11-25T09:40:04.689Z,52.17
2022-11-25T09:43:07.455Z,51.40
2022-11-25T09:45:57.277Z,50.42
2022-11-25T09:48:29.615Z,47.50
2022-11-25T09:51:14.197Z,55.40
2022-11-25T09:53:43.628Z,48.30
2022-11-25T09:56:34.749Z,56.03
2022-11-25T09:59:14.474Z,46.47
2022-11-25T10:02:12.510Z,45.83
2022-11-25T10:04:54.665Z,42.80
2022-11-25T10:07:33.109Z,45.65
2022-11-25T10:10:03.461Z,41.05
2022-11-25T10:12:36.126Z,44.03
2022-11-25T10:15:12.097Z,47.97
2022-11-25T10:17:45.526Z,51.80
2022-11-25T10:20:19.620Z,48.60
2022-11-25T10:22:51.927Z,47.25
2022-11-25T10:25:25.189Z,57.08
2022-11-25T10:28:04.666Z,49.72
2022-11-25T10:30:40.704Z,43.83
2022-11-25T10:33:20.891Z,56.60
2022-11-25T10:36:08.116Z,49.10
2022-11-25T10:38:59.885Z,52.53
2022-11-25T10:41:30.236Z,45.47
2022-11-25T10:43:57.126Z,43.78
2022-11-25T10:47:14.246Z,42.90
2022-11-25T10:50:08.822Z,39.20
2022-11-25T10:52:44.313Z,44.10
2022-11-25T10:55:14.811Z,37.05
2022-11-25T10:57:42.197Z,34.33
2022-11-25T11:00:25.871Z,38.00
2022-11-25T11:02:53.665Z,43.72
2022-11-25T11:05:29.784Z,39.30
2022-11-25T11:08:35.309Z,39.60
2022-11-25T11:11:18.726Z,39.42
2022-11-25T11:13:46.220Z,39.47
2022-11-25T11:16:45.444Z,34.92
2022-11-25T11:19:29.881Z,39.42
2022-11-25T11:22:15.582Z,36.22
2022-11-25T11:24:42.548Z,34.60
2022-11-25T11:27:21.383Z,28.85
2022-11-25T11:29:47.864Z,22.58
2022-11-25T11:32:25.243Z,26.05
2022-11-25T11:35:14.162Z,24.25
2022-11-25T11:37:45.901Z,26.63
2022-11-25T11:40:35.477Z,30.75
2022-11-25T11:43:49.461Z,26.63
2022-11-25T11:46:18.703Z,29.55
2022-11-25T11:48:53.481Z,30.30
2022-11-25T11:51:31.738Z,27.08
2022-11-25T11:54:30.522Z,29.27
2022-11-25T11:57:02.225Z,30.25
2022-11-25T11:59:37.752Z,27.75
2022-11-25T12:02:31.048Z,28.50
2022-11-25T12:05:06.375Z,33.70
2022-11-25T12:07:38.544Z,31.13
2022-11-25T12:10:13.694Z,26.55
2022-11-25T12:12:48.936Z,30.45
2022-11-25T12:15:33.446Z,28.48
2022-11-25T12:18:09.923Z,28.95
2022-11-25T12:20:40.142Z,29.95
2022-11-25T12:23:18.588Z,28.60
2022-11-25T12:25:47.694Z,28.92
2022-11-25T12:28:29.946Z,27.55
2022-11-25T12:31:31.828Z,33.10
2022-11-25T12:34:08.070Z,32.97
2022-11-25T12:36:40.451Z,45.22
2022-11-25T12:39:23.656Z,37.08
2022-11-25T12:42:01.130Z,30.40
2022-11-25T12:44:48.360Z,37.63
2022-11-25T12:47:14.845Z,34.38
2022-11-25T12:49:48.197Z,34.80
2022-11-25T12:52:22.075Z,38.83
2022-11-25T12:55:07.293Z,32.95
2022-11-25T12:58:08.642Z,37.90
2022-11-25T13:01:03.434Z,38.42
2022-11-25T13:04:14.697Z,40.60
2022-11-25T13:06:59.406Z,40.85
2022-11-25T13:09:47.836Z,43.95
2022-11-25T13:12:48.660Z,43.08
2022-11-25T13:15:25.137Z,40.10
2022-11-25T13:17:57.635Z,46.47
2022-11-25T13:20:26.998Z,38.53
2022-11-25T13:23:07.626Z,43.67
2022-11-25T13:25:35.424Z,39.20
2022-11-25T13:28:04.926Z,44.65
2022-11-25T13:30:34.129Z,39.30
2022-11-25T13:33:09.665Z,42.28
2022-11-25T13:35:39.503Z,42.35
2022-11-25T13:38:29.038Z,42.67
2022-11-25T13:41:22.087Z,44.88
2022-11-25T13:44:03.570Z,44.65
2022-11-25T13:49:51.812Z,44.65
2022-11-25T13:52:18.170Z,53.75
2022-11-25T13:54:53.727Z,54.35
2022-11-25T13:57:38.106Z,42.28
2022-11-25T14:00:33.197Z,51.42
2022-11-25T14:03:18.470Z,51.65
2022-11-25T14:06:28.190Z,43.55
2022-11-25T14:09:03.628Z,49.33
2022-11-25T14:11:47.107Z,47.53
2022-11-25T14:14:32.361Z,48.63
2022-11-25T14:17:31.172Z,46.33
2022-11-25T14:20:10.676Z,49.92
2022-11-25T14:23:20.960Z,54.10
2022-11-25T14:25:57.649Z,49.40
2022-11-25T14:28:41.967Z,51.75
2022-11-25T14:31:16.287Z,47.72
2022-11-25T14:33:56.891Z,50.88
2022-11-25T14:36:41.789Z,60.97
2022-11-25T14:39:46.801Z,53.42
2022-11-25T14:42:21.179Z,62.65
2022-11-25T14:44:50.865Z,60.95
2022-11-25T14:47:25.265Z,58.75
2022-11-25T14:52:47.082Z,56.88
2022-11-25T14:55:24.693Z,59.08
2022-11-25T14:57:52.176Z,61.78
2022-11-25T15:00:18.908Z,60.75
2022-11-25T15:02:53.813Z,60.35
2022-11-25T15:05:23.071Z,53.42
2022-11-25T15:08:04.231Z,59.35
2022-11-25T15:10:51.508Z,54.50
2022-11-25T15:13:44.799Z,62.03
2022-11-25T15:16:15.743Z,58.30
2022-11-25T15:18:55.992Z,66.95
2022-11-25T15:21:29.123Z,60.30
2022-11-25T15:23:56.093Z,59.95
2022-11-25T15:26:24.844Z,61.30
2022-11-25T15:28:58.964Z,59.08
2022-11-25T15:31:34.350Z,63.92
2022-11-25T15:34:04.683Z,52.50
2022-11-25T15:36:31.523Z,57.97
2022-11-25T15:39:18.949Z,51.03
2022-11-25T15:41:48.410Z,61.47
2022-11-25T15:44:28.658Z,59.10
2022-11-25T15:47:02.698Z,59.28
2022-11-25T15:49:30.047Z,60.95
2022-11-25T15:52:06.989Z,60.17
2022-11-25T15:54:40.255Z,64.82
2022-11-25T15:57:15.700Z,63.67
2022-11-25T16:00:23.078Z,65.35
2022-11-25T16:02:52.636Z,66.35
2022-11-25T16:05:35.139Z,64.85
2022-11-25T16:08:18.049Z,67.57
2022-11-25T16:10:44.424Z,64.07
2022-11-25T16:13:23.358Z,64.65
2022-11-25T16:15:58.653Z,65.70
2022-11-25T16:18:51.542Z,68.93
2022-11-25T16:21:22.244Z,65.75
2022-11-25T16:23:52.500Z,67.38
2022-11-25T16:26:27.756Z,61.17
2022-11-25T16:28:56.614Z,80.10
2022-11-25T16:31:24.128Z,65.25
2022-11-25T16:34:01.568Z,66.85
2022-11-25T16:36:27.981Z,64.20
2022-11-25T16:38:54.508Z,60.08
2022-11-25T16:41:24.546Z,64.07
2022-11-25T16:43:51.688Z,67.47
2022-11-25T16:46:19.879Z,71.22
2022-11-25T16:48:47.243Z,64.68
2022-11-25T16:51:19.615Z,67.68
2022-11-25T16:53:47.081Z,71.32
2022-11-25T16:56:34.967Z,70.32
2022-11-25T16:59:02.880Z,67.60
2022-11-25T17:01:30.876Z,68.55
2022-11-25T17:03:57.648Z,68.20
2022-11-25T17:06:25.934Z,72.45
2022-11-25T17:08:52.798Z,87.97
2022-11-25T17:11:32.377Z,82.15
2022-11-25T17:14:02.737Z,85.88
2022-11-25T17:16:30.112Z,107.75
2022-11-25T17:18:58.522Z,93.03
2022-11-25T17:21:27.839Z,97.32
2022-11-25T17:23:59.599Z,83.97
2022-11-25T17:26:37.586Z,61.67
2022-11-25T17:29:12.137Z,62.67
2022-11-25T17:31:38.955Z,77.30
2022-11-25T17:34:05.970Z,92.50
2022-11-25T17:36:32.370Z,109.90
2022-11-25T17:38:58.849Z,108.55
2022-11-25T17:41:36.737Z,88.07
2022-11-25T17:44:06.144Z,79.55
2022-11-25T17:46:32.624Z,75.85
2022-11-25T17:49:00.360Z,77.75
2022-11-25T17:51:26.776Z,74.57
2022-11-25T17:53:53.338Z,68.45
2022-11-25T17:56:30.268Z,82.68
2022-11-25T17:59:02.275Z,78.97
2022-11-25T18:01:28.800Z,84.00
2022-11-25T18:03:56.020Z,85.55
2022-11-25T18:06:23.287Z,79.20
2022-11-25T18:08:49.794Z,74.38
2022-11-25T18:11:19.493Z,73.35
2022-11-25T18:13:47.533Z,87.78
2022-11-25T18:16:18.043Z,118.68
2022-11-25T18:18:44.505Z,92.00
2022-11-25T18:21:11.840Z,104.57
2022-11-25T18:23:38.300Z,109.20
2022-11-25T18:26:05.071Z,102.07
2022-11-25T18:28:32.448Z,80.68
2022-11-25T18:31:03.150Z,85.63
2022-11-25T18:33:30.067Z,83.50
2022-11-25T18:35:56.508Z,172.15
2022-11-25T18:38:23.218Z,132.02
2022-11-25T18:40:53.520Z,102.90
2022-11-25T18:43:24.601Z,83.35
2022-11-25T18:45:52.518Z,76.63
2022-11-25T18:48:24.030Z,77.50
2022-11-25T18:50:52.248Z,68.68
2022-11-25T18:53:19.007Z,82.25
2022-11-25T18:55:46.813Z,95.88
2022-11-25T18:58:19.216Z,90.00
2022-11-25T19:00:48.578Z,79.65
2022-11-25T19:03:24.308Z,77.20
2022-11-25T19:05:52.034Z,69.82
2022-11-25T19:08:18.687Z,75.70
2022-11-25T19:10:47.085Z,78.45
2022-11-25T19:13:32.931Z,93.82
2022-11-25T19:16:08.010Z,76.15
2022-11-25T19:18:35.256Z,75.78
2022-11-25T19:21:01.720Z,78.35
2022-11-25T19:23:28.818Z,75.88
2022-11-25T19:26:00.963Z,78.18
2022-11-25T19:28:29.312Z,73.82
2022-11-25T19:31:00.290Z,75.85
2022-11-25T19:33:30.674Z,71.53
2022-11-25T19:35:58.378Z,73.50
2022-11-25T19:38:26.016Z,64.82
2022-11-25T19:40:53.642Z,63.88
2022-11-25T19:43:20.467Z,60.33
2022-11-25T19:45:47.052Z,58.90
2022-11-25T19:48:19.525Z,57.53
2022-11-25T19:50:48.560Z,54.13
2022-11-25T19:53:21.097Z,60.17
2022-11-25T19:55:48.634Z,69.90
2022-11-25T19:58:15.654Z,79.57
2022-11-25T20:00:43.987Z,71.18
2022-11-25T20:03:23.500Z,71.25
2022-11-25T20:05:53.182Z,61.83
2022-11-25T20:08:26.376Z,56.05
2022-11-25T20:10:53.521Z,58.00
2022-11-25T20:13:20.767Z,54.92
2022-11-25T20:15:47.428Z,58.30
2022-11-25T20:18:20.399Z,43.17
2022-11-25T20:20:49.967Z,41.40
2022-11-25T20:23:43.700Z,34.15
2022-11-25T20:26:24.565Z,49.45
2022-11-25T20:28:51.002Z,68.00
2022-11-25T20:31:17.530Z,74.60
2022-11-25T20:33:44.010Z,97.57
2022-11-25T20:36:15.500Z,55.97
2022-11-25T20:41:11.171Z,55.75
2022-11-25T20:43:41.393Z,54.05
2022-11-25T20:46:24.117Z,153.52
2022-11-25T20:48:56.607Z,98.82
2022-11-25T20:51:24.462Z,79.80
2022-11-25T20:54:01.255Z,59.60
2022-11-25T20:56:28.456Z,48.25
2022-11-25T20:58:55.532Z,50.20
2022-11-25T21:01:22.382Z,47.85
2022-11-25T21:03:50.301Z,52.55
2022-11-25T21:06:31.171Z,46.20
2022-11-25T21:09:01.167Z,48.78
2022-11-25T21:11:28.182Z,50.72
2022-11-25T21:13:54.691Z,59.13
2022-11-25T21:16:21.220Z,50.95
2022-11-25T21:18:47.740Z,54.92
2022-11-25T21:21:25.287Z,53.13
2022-11-25T21:23:52.061Z,49.25
2022-11-25T21:26:20.971Z,52.05
2022-11-25T21:28:49.768Z,50.47
2022-11-25T21:31:19.121Z,55.72
2022-11-25T21:33:46.771Z,52.28
2022-11-25T21:36:25.803Z,59.55
2022-11-25T21:39:01.650Z,58.22
2022-11-25T21:41:28.115Z,60.90
2022-11-25T21:43:54.583Z,71.55
2022-11-25T21:46:26.504Z,59.15
2022-11-25T21:48:53.149Z,52.28
2022-11-25T21:51:24.007Z,51.88
2022-11-25T21:53:51.514Z,59.15
2022-11-25T21:56:30.909Z,62.25
2022-11-25T21:58:59.678Z,57.15
2022-11-25T22:01:26.296Z,58.15
2022-11-25T22:03:52.829Z,56.47
2022-11-25T22:06:24.899Z,60.15
2022-11-25T22:08:51.528Z,68.47
2022-11-25T22:11:21.129Z,62.60
2022-11-25T22:13:48.576Z,64.05
2022-11-25T22:16:17.597Z,59.63
2022-11-25T22:18:45.015Z,54.67
2022-11-25T22:21:13.770Z,59.05
2022-11-25T22:23:41.441Z,57.20
2022-11-25T22:26:16.240Z,73.50
2022-11-25T22:28:45.058Z,54.58
2022-11-25T22:31:12.673Z,55.28
2022-11-25T22:33:39.182Z,54.10
2022-11-25T22:36:06.001Z,48.55
2022-11-25T22:38:32.527Z,55.63
2022-11-25T22:41:03.764Z,56.85
2022-11-25T22:43:36.599Z,49.47
2022-11-25T22:46:04.691Z,49.88
2022-11-25T22:48:35.191Z,48.03
2022-11-25T22:51:02.373Z,55.75
2022-11-25T22:53:29.395Z,52.08
2022-11-25T22:55:58.084Z,49.15
2022-11-25T22:58:28.157Z,53.15
2022-11-25T23:00:56.125Z,54.80
2022-11-25T23:03:26.035Z,51.78
2022-11-25T23:05:54.113Z,60.88
2022-11-25T23:08:23.212Z,55.40
2022-11-25T23:10:51.499Z,55.90
2022-11-25T23:13:20.493Z,49.45
2022-11-25T23:16:01.761Z,54.40
2022-11-25T23:18:38.973Z,49.67
2022-11-25T23:21:07.254Z,53.35
2022-11-25T23:23:33.816Z,61.75
2022-11-25T23:26:00.273Z,51.67
2022-11-25T23:28:26.803Z,52.60
2022-11-25T23:30:58.255Z,56.53
2022-11-25T23:33:51.424Z,58.90
2022-11-25T23:36:21.147Z,55.85
2022-11-25T23:38:52.692Z,54.75
2022-11-25T23:43:46.793Z,51.67
2022-11-25T23:46:15.048Z,48.13
2022-11-25T23:48:43.421Z,56.42
2022-11-25T23:51:10.415Z,51.60
2022-11-25T23:53:39.458Z,55.13
2022-11-25T23:56:06.108Z,48.58
2022-11-25T23:58:32.617Z,47.38
